Port Alexander, Alaska
Current Conditions -  °F | °C
As of 9:56 AM on Sunday 23 Nov 2014 (Local Time) from PAFE Reporting Station
Broken Clouds Broken Clouds  
Wind Chill: 37°   Ceiling: 1000
Heat Index: 41°   Visibility: 10mi
Dew Point: 39°   Wind: 6mph
Humidity: 93%   Direction: 110°ESE
Pressure: 29.76"   Gusts: NA
Location:  56.25°N, 134.65°W
Report Text: PAFE 231856Z AUTO 11005KT 10SM BKN010 BKN041 05/04 A2976 RMK AO1
Loading
Personal Weather Stations






























Interactive Weather Map New forecast layout! Learn more

10-Day Weather Forecast

Advertisements
Track Severe Weather on mobile